createdAt,value
2022-10-30T00:02:48.190Z,11.88
2022-10-30T00:07:51.957Z,11.95
2022-10-30T00:12:55.591Z,11.80
2022-10-30T00:17:59.268Z,13.57
2022-10-30T00:23:02.921Z,11.85
2022-10-30T00:28:07.483Z,11.27
2022-10-30T00:33:11.198Z,11.05
2022-10-30T00:38:18.873Z,12.35
2022-10-30T00:43:27.468Z,11.65
2022-10-30T00:48:31.054Z,11.07
2022-10-30T00:53:35.261Z,11.25
2022-10-30T00:58:44.233Z,10.50
2022-10-30T01:03:50.618Z,10.13
2022-10-30T01:08:58.972Z,10.98
2022-10-30T01:14:14.762Z,10.23
2022-10-30T01:19:36.382Z,10.20
2022-10-30T01:24:45.708Z,9.97
2022-10-30T01:30:03.969Z,9.50
2022-10-30T01:35:19.655Z,9.35
2022-10-30T01:40:23.990Z,8.52
2022-10-30T01:45:58.680Z,7.22
2022-10-30T01:56:22.814Z,7.40
2022-10-30T02:01:30.270Z,7.40
2022-10-30T02:06:33.768Z,7.55
2022-10-30T02:11:39.008Z,7.95
2022-10-30T02:16:49.766Z,7.93
2022-10-30T02:21:55.730Z,8.15
2022-10-30T02:26:59.504Z,7.03
2022-10-30T02:32:03.335Z,7.97
2022-10-30T02:37:06.671Z,7.75
2022-10-30T02:42:09.918Z,8.23
2022-10-30T02:47:13.472Z,7.15
2022-10-30T02:52:16.949Z,7.70
2022-10-30T02:57:20.556Z,8.38
2022-10-30T03:02:25.170Z,8.95
2022-10-30T03:07:28.996Z,7.95
2022-10-30T03:12:32.987Z,7.53
2022-10-30T03:17:36.583Z,7.35
2022-10-30T03:22:40.542Z,6.75
2022-10-30T03:27:44.105Z,7.50
2022-10-30T03:32:47.984Z,7.65
2022-10-30T03:37:51.541Z,6.80
2022-10-30T03:42:56.814Z,6.75
2022-10-30T03:48:04.920Z,6.10
2022-10-30T03:53:08.901Z,6.70
2022-10-30T03:58:12.620Z,6.60
2022-10-30T04:03:17.174Z,6.32
2022-10-30T04:08:21.038Z,6.18
2022-10-30T04:13:24.875Z,7.07
2022-10-30T04:18:29.427Z,6.38
2022-10-30T04:23:33.727Z,7.03
2022-10-30T04:28:37.349Z,5.60
2022-10-30T04:33:41.258Z,6.65
2022-10-30T04:38:44.855Z,6.45
2022-10-30T04:43:50.301Z,5.90
2022-10-30T04:48:55.243Z,6.65
2022-10-30T04:53:58.724Z,6.43
2022-10-30T04:59:04.880Z,6.07
2022-10-30T05:04:08.542Z,6.68
2022-10-30T05:09:12.327Z,6.70
2022-10-30T05:14:16.902Z,5.88
2022-10-30T05:19:22.495Z,6.47
2022-10-30T05:24:30.777Z,6.63
2022-10-30T05:29:34.048Z,6.10
2022-10-30T05:34:40.153Z,6.60
2022-10-30T05:39:43.591Z,6.53
2022-10-30T05:45:01.694Z,6.50
2022-10-30T05:50:09.138Z,6.90
2022-10-30T05:55:13.000Z,7.22
2022-10-30T06:00:36.263Z,7.07
2022-10-30T06:05:40.703Z,8.25
2022-10-30T06:10:47.595Z,9.40
2022-10-30T06:15:57.516Z,7.18
2022-10-30T06:21:05.912Z,10.80
2022-10-30T06:26:33.008Z,10.13
2022-10-30T06:31:42.243Z,8.50
2022-10-30T06:36:45.808Z,7.03
2022-10-30T06:41:49.312Z,8.45
2022-10-30T06:47:01.744Z,7.65
2022-10-30T06:52:05.179Z,7.72
2022-10-30T06:57:08.602Z,7.53
2022-10-30T07:02:38.438Z,7.00
2022-10-30T07:07:46.058Z,7.70
2022-10-30T07:12:54.503Z,8.50
2022-10-30T07:18:29.547Z,7.28
2022-10-30T07:23:35.665Z,7.80
2022-10-30T07:29:14.417Z,7.85
2022-10-30T07:34:24.219Z,6.32
2022-10-30T07:39:47.326Z,8.38
2022-10-30T07:44:59.980Z,7.75
2022-10-30T07:50:16.917Z,6.47
2022-10-30T07:55:20.596Z,7.63
2022-10-30T08:00:47.126Z,6.38
2022-10-30T08:05:59.679Z,8.43
2022-10-30T08:11:11.626Z,8.02
2022-10-30T08:16:15.252Z,8.00
2022-10-30T08:21:18.845Z,8.52
2022-10-30T08:26:38.718Z,7.03
2022-10-30T08:31:42.522Z,7.50
2022-10-30T08:37:01.259Z,7.63
2022-10-30T08:42:05.196Z,7.63
2022-10-30T08:47:15.027Z,6.88
2022-10-30T08:52:18.831Z,7.00
2022-10-30T08:57:27.916Z,7.40
2022-10-30T09:02:35.929Z,8.07
2022-10-30T09:08:08.347Z,7.97
2022-10-30T09:13:40.469Z,8.43
2022-10-30T09:18:43.990Z,7.47
2022-10-30T09:23:47.372Z,8.60
2022-10-30T09:29:08.938Z,7.78
2022-10-30T09:34:31.038Z,8.00
2022-10-30T09:39:40.067Z,8.57
2022-10-30T09:45:33.450Z,8.30
2022-10-30T09:50:46.811Z,8.30
2022-10-30T09:56:05.241Z,8.88
2022-10-30T10:01:16.274Z,7.82
2022-10-30T10:06:31.555Z,8.15
2022-10-30T10:12:01.873Z,8.02
2022-10-30T10:17:10.891Z,8.32
2022-10-30T10:22:20.351Z,7.43
2022-10-30T10:27:51.541Z,7.35
2022-10-30T10:33:18.507Z,7.93
2022-10-30T10:38:47.288Z,8.48
2022-10-30T10:44:30.145Z,8.70
2022-10-30T10:49:56.939Z,7.85
2022-10-30T10:55:24.892Z,7.65
2022-10-30T11:00:30.613Z,8.05
2022-10-30T11:05:56.831Z,8.40
2022-10-30T11:11:05.607Z,10.05
2022-10-30T11:16:34.870Z,8.43
2022-10-30T11:21:49.347Z,9.25
2022-10-30T11:26:54.665Z,8.77
2022-10-30T11:32:05.733Z,8.73
2022-10-30T11:37:41.281Z,9.57
2022-10-30T11:42:59.658Z,9.18
2022-10-30T11:48:19.018Z,9.18
2022-10-30T11:53:32.708Z,8.18
2022-10-30T11:58:43.106Z,8.68
2022-10-30T12:03:46.529Z,8.75
2022-10-30T12:09:02.397Z,8.63
2022-10-30T12:14:06.799Z,9.85
2022-10-30T12:19:15.151Z,9.13
2022-10-30T12:24:30.266Z,9.18
2022-10-30T12:30:08.946Z,9.75
2022-10-30T12:35:44.196Z,8.20
2022-10-30T12:41:04.640Z,9.20
2022-10-30T12:46:28.439Z,8.85
2022-10-30T12:52:19.457Z,7.72
2022-10-30T12:57:32.294Z,7.88
2022-10-30T13:03:23.450Z,7.65
2022-10-30T13:08:39.861Z,7.57
2022-10-30T13:13:47.730Z,7.53
2022-10-30T13:18:55.471Z,7.68
2022-10-30T13:24:27.633Z,8.52
2022-10-30T13:29:44.834Z,7.40
2022-10-30T13:35:04.662Z,7.57
2022-10-30T13:40:38.086Z,7.82
2022-10-30T13:45:57.864Z,7.15
2022-10-30T13:51:32.766Z,8.65
2022-10-30T13:56:37.109Z,8.23
2022-10-30T14:01:56.291Z,9.23
2022-10-30T14:07:38.463Z,9.35
2022-10-30T14:12:46.218Z,9.43
2022-10-30T14:18:14.306Z,9.88
2022-10-30T14:23:20.415Z,9.32
2022-10-30T14:28:24.014Z,8.98
2022-10-30T14:33:49.585Z,8.82
2022-10-30T14:39:01.028Z,9.40
2022-10-30T14:44:23.098Z,9.85
2022-10-30T14:49:47.459Z,9.73
2022-10-30T14:55:34.977Z,8.57
2022-10-30T15:00:43.129Z,8.15
2022-10-30T15:05:52.535Z,8.40
2022-10-30T15:11:19.159Z,7.53
2022-10-30T15:16:24.639Z,8.40
2022-10-30T15:21:31.528Z,8.27
2022-10-30T15:26:37.028Z,8.23
2022-10-30T15:31:40.549Z,7.75
2022-10-30T15:36:44.192Z,8.15
2022-10-30T15:41:51.523Z,8.93
2022-10-30T15:46:57.655Z,8.27
2022-10-30T15:52:14.442Z,8.70
2022-10-30T16:03:06.856Z,8.00
2022-10-30T16:08:24.922Z,8.45
2022-10-30T16:13:31.728Z,8.88
2022-10-30T16:18:36.335Z,7.80
2022-10-30T16:23:46.640Z,8.93
2022-10-30T16:28:50.209Z,9.10
2022-10-30T16:33:53.876Z,7.90
2022-10-30T16:38:57.932Z,9.57
2022-10-30T16:44:14.086Z,8.98
2022-10-30T16:49:27.606Z,9.63
2022-10-30T16:54:41.352Z,10.05
2022-10-30T16:59:49.315Z,9.57
2022-10-30T17:04:58.196Z,10.07
2022-10-30T17:10:01.915Z,10.30
2022-10-30T17:15:08.281Z,10.07
2022-10-30T17:20:29.989Z,9.00
2022-10-30T17:25:39.813Z,10.35
2022-10-30T17:30:44.190Z,10.07
2022-10-30T17:35:47.737Z,9.77
2022-10-30T17:40:51.258Z,10.13
2022-10-30T17:45:54.825Z,10.25
2022-10-30T17:50:58.650Z,10.52
2022-10-30T17:56:11.470Z,12.10
2022-10-30T18:01:18.812Z,12.07
2022-10-30T18:06:25.807Z,10.25
2022-10-30T18:11:29.127Z,11.95
2022-10-30T18:16:32.760Z,13.20
2022-10-30T18:21:35.993Z,11.25
2022-10-30T18:26:42.307Z,11.05
2022-10-30T18:31:45.852Z,9.95
2022-10-30T18:36:49.981Z,11.38
2022-10-30T18:41:53.442Z,10.15
2022-10-30T18:47:02.559Z,10.90
2022-10-30T18:52:06.506Z,9.57
2022-10-30T18:57:09.663Z,10.23
2022-10-30T19:02:21.386Z,10.27
2022-10-30T19:07:24.596Z,11.07
2022-10-30T19:12:27.940Z,9.23
2022-10-30T19:17:31.274Z,12.05
2022-10-30T19:22:34.863Z,9.07
2022-10-30T19:27:38.321Z,9.43
2022-10-30T19:32:41.545Z,9.15
2022-10-30T19:37:44.908Z,9.40
2022-10-30T19:42:48.938Z,8.98
2022-10-30T19:47:54.512Z,8.82
2022-10-30T19:53:00.403Z,10.02
2022-10-30T19:58:05.751Z,9.48
2022-10-30T20:03:11.761Z,9.75
2022-10-30T20:08:16.778Z,10.18
2022-10-30T20:13:20.732Z,9.45
2022-10-30T20:18:29.321Z,8.70
2022-10-30T20:23:32.728Z,9.35
2022-10-30T20:28:39.138Z,8.80
2022-10-30T20:33:42.455Z,9.13
2022-10-30T20:38:46.030Z,8.88
2022-10-30T20:43:49.729Z,8.35
2022-10-30T20:48:53.167Z,8.40
2022-10-30T20:53:56.774Z,8.40
2022-10-30T20:59:00.320Z,8.27
2022-10-30T21:04:04.094Z,8.57
2022-10-30T21:09:07.743Z,8.63
2022-10-30T21:14:10.939Z,8.75
2022-10-30T21:19:14.305Z,9.15
2022-10-30T21:24:18.074Z,8.85
2022-10-30T21:29:21.523Z,8.40
2022-10-30T21:34:24.969Z,8.65
2022-10-30T21:39:29.342Z,8.27
2022-10-30T21:44:32.874Z,8.98
2022-10-30T21:49:36.370Z,7.72
2022-10-30T21:54:39.807Z,7.95
2022-10-30T21:59:43.181Z,8.73
2022-10-30T22:04:51.942Z,6.10
2022-10-30T22:09:55.331Z,6.55
2022-10-30T22:14:59.857Z,7.43
2022-10-30T22:20:03.759Z,6.80
2022-10-30T22:25:07.265Z,6.93
2022-10-30T22:30:11.307Z,6.22
2022-10-30T22:35:15.146Z,7.47
2022-10-30T22:40:18.593Z,5.78
2022-10-30T22:45:22.149Z,7.03
2022-10-30T22:50:25.786Z,6.97
2022-10-30T22:55:29.036Z,6.15
2022-10-30T23:00:32.203Z,7.32
2022-10-30T23:05:36.414Z,6.22
2022-10-30T23:10:39.717Z,6.32
2022-10-30T23:15:43.145Z,6.57
2022-10-30T23:20:49.334Z,5.82
2022-10-30T23:25:53.335Z,6.50
2022-10-30T23:30:56.859Z,5.25
2022-10-30T23:36:06.664Z,6.53
2022-10-30T23:41:10.733Z,5.63
2022-10-30T23:46:13.873Z,5.80
2022-10-30T23:51:18.139Z,5.70
2022-10-30T23:56:23.373Z,5.43
